createdAt,value
2022-11-10T00:00:53.616Z,10.33
2022-11-10T00:02:55.581Z,10.33
2022-11-10T00:04:57.260Z,10.30
2022-11-10T00:06:58.959Z,10.23
2022-11-10T00:09:00.792Z,10.16
2022-11-10T00:11:07.078Z,10.14
2022-11-10T00:13:08.738Z,10.10
2022-11-10T00:15:30.005Z,10.10
2022-11-10T00:17:32.139Z,10.11
2022-11-10T00:19:34.652Z,10.14
2022-11-10T00:21:37.291Z,10.17
2022-11-10T00:23:39.236Z,10.14
2022-11-10T00:25:40.888Z,10.12
2022-11-10T00:27:42.465Z,10.10
2022-11-10T00:29:44.373Z,10.13
2022-11-10T00:31:46.003Z,10.14
2022-11-10T00:33:47.603Z,10.12
2022-11-10T00:35:49.224Z,10.09
2022-11-10T00:37:51.940Z,10.08
2022-11-10T00:39:53.750Z,10.05
2022-11-10T00:41:56.464Z,10.09
2022-11-10T00:43:58.120Z,10.09
2022-11-10T00:45:59.781Z,10.08
2022-11-10T00:48:01.460Z,10.06
2022-11-10T00:50:03.354Z,9.97
2022-11-10T00:52:04.999Z,9.89
2022-11-10T00:54:06.659Z,9.89
2022-11-10T00:56:08.276Z,9.89
2022-11-10T00:58:09.953Z,9.86
2022-11-10T01:00:11.920Z,9.86
2022-11-10T01:02:13.598Z,9.90
2022-11-10T01:04:15.319Z,9.88
2022-11-10T01:06:18.135Z,9.86
2022-11-10T01:08:19.741Z,9.88
2022-11-10T01:10:21.594Z,9.86
2022-11-10T01:12:23.186Z,9.87
2022-11-10T01:14:24.751Z,9.85
2022-11-10T01:16:29.396Z,9.82
2022-11-10T01:18:31.145Z,9.83
2022-11-10T01:20:36.265Z,9.82
2022-11-10T01:22:37.987Z,9.84
2022-11-10T01:24:39.588Z,9.83
2022-11-10T01:26:41.253Z,9.81
2022-11-10T01:28:43.121Z,9.80
2022-11-10T01:30:44.796Z,9.77
2022-11-10T01:32:46.567Z,9.75
2022-11-10T01:34:48.230Z,9.77
2022-11-10T01:36:49.808Z,9.75
2022-11-10T01:38:51.610Z,9.75
2022-11-10T01:40:53.221Z,9.71
2022-11-10T01:42:57.130Z,9.70
2022-11-10T01:45:37.275Z,9.69
2022-11-10T01:47:38.836Z,9.64
2022-11-10T01:49:40.462Z,9.61
2022-11-10T01:52:05.005Z,9.56
2022-11-10T01:54:12.294Z,9.52
2022-11-10T01:56:14.612Z,9.49
2022-11-10T01:58:18.569Z,9.44
2022-11-10T02:00:20.569Z,9.42
2022-11-10T02:02:28.851Z,9.45
2022-11-10T02:04:31.072Z,9.45
2022-11-10T02:06:38.059Z,9.47
2022-11-10T02:08:40.230Z,9.47
2022-11-10T02:10:42.005Z,9.45
2022-11-10T02:12:43.923Z,9.47
2022-11-10T02:14:45.648Z,9.47
2022-11-10T02:16:47.692Z,9.47
2022-11-10T02:18:49.670Z,9.49
2022-11-10T02:20:51.344Z,9.46
2022-11-10T02:22:52.989Z,9.13
2022-11-10T02:24:54.675Z,8.77
2022-11-10T02:26:56.668Z,8.55
2022-11-10T02:28:58.478Z,8.42
2022-11-10T02:31:00.221Z,8.36
2022-11-10T02:33:03.795Z,8.39
2022-11-10T02:35:05.829Z,8.48
2022-11-10T02:37:07.385Z,8.60
2022-11-10T02:39:09.010Z,8.69
2022-11-10T02:41:10.742Z,8.78
2022-11-10T02:43:14.239Z,8.89
2022-11-10T02:45:15.909Z,8.94
2022-11-10T02:47:26.980Z,8.99
2022-11-10T02:49:28.666Z,9.01
2022-11-10T02:51:30.322Z,8.99
2022-11-10T02:53:32.209Z,9.07
2022-11-10T02:55:34.093Z,9.09
2022-11-10T02:57:35.745Z,9.08
2022-11-10T02:59:37.525Z,9.14
2022-11-10T03:01:39.256Z,9.11
2022-11-10T03:03:40.937Z,9.15
2022-11-10T03:05:42.656Z,9.15
2022-11-10T03:07:44.299Z,9.10
2022-11-10T03:09:45.907Z,9.08
2022-11-10T03:11:47.535Z,9.10
2022-11-10T03:14:00.885Z,9.15
2022-11-10T03:16:04.247Z,9.16
2022-11-10T03:18:06.251Z,9.17
2022-11-10T03:20:08.384Z,9.17
2022-11-10T03:22:10.145Z,9.18
2022-11-10T03:24:11.896Z,9.16
2022-11-10T03:26:14.406Z,9.14
2022-11-10T03:28:16.266Z,9.11
2022-11-10T03:30:18.010Z,9.09
2022-11-10T03:32:19.612Z,9.12
2022-11-10T03:34:21.228Z,9.14
2022-11-10T03:36:22.920Z,9.14
2022-11-10T03:38:24.557Z,9.17
2022-11-10T03:40:26.246Z,9.14
2022-11-10T03:42:27.849Z,9.11
2022-11-10T03:44:29.467Z,9.12
2022-11-10T03:46:31.181Z,9.13
2022-11-10T03:48:32.850Z,9.11
2022-11-10T03:50:34.485Z,9.08
2022-11-10T03:52:38.977Z,9.04
2022-11-10T03:54:40.618Z,9.07
2022-11-10T03:56:42.350Z,9.05
2022-11-10T03:58:44.209Z,9.07
2022-11-10T04:00:45.814Z,9.06
2022-11-10T04:02:47.437Z,9.06
2022-11-10T04:05:07.517Z,9.05
2022-11-10T04:07:32.459Z,9.03
2022-11-10T04:09:34.276Z,8.95
2022-11-10T04:11:54.435Z,8.92
2022-11-10T04:14:14.801Z,8.86
2022-11-10T04:16:16.400Z,8.77
2022-11-10T04:18:21.230Z,8.76
2022-11-10T04:20:22.881Z,8.78
2022-11-10T04:22:43.379Z,8.77
2022-11-10T04:24:45.075Z,8.80
2022-11-10T04:26:48.628Z,8.87
2022-11-10T04:28:52.346Z,8.88
2022-11-10T04:30:54.005Z,8.92
2022-11-10T04:32:55.662Z,8.96
2022-11-10T04:34:57.291Z,8.90
2022-11-10T04:36:58.876Z,8.91
2022-11-10T04:39:00.927Z,8.89
2022-11-10T04:41:03.077Z,8.89
2022-11-10T04:43:04.687Z,8.88
2022-11-10T04:45:07.027Z,8.89
2022-11-10T04:47:11.770Z,8.85
2022-11-10T04:49:15.628Z,8.85
2022-11-10T04:51:18.527Z,8.90
2022-11-10T04:53:21.000Z,8.88
2022-11-10T04:55:22.905Z,8.88
2022-11-10T04:57:24.556Z,8.80
2022-11-10T04:59:26.168Z,8.80
2022-11-10T05:01:28.150Z,8.77
2022-11-10T05:03:29.752Z,8.75
2022-11-10T05:05:31.925Z,8.74
2022-11-10T05:07:33.671Z,8.72
2022-11-10T05:09:35.299Z,8.73
2022-11-10T05:11:37.276Z,8.63
2022-11-10T05:13:39.245Z,8.60
2022-11-10T05:15:42.221Z,8.57
2022-11-10T05:17:43.858Z,8.46
2022-11-10T05:19:47.595Z,8.24
2022-11-10T05:21:49.269Z,8.00
2022-11-10T05:23:50.892Z,7.89
2022-11-10T05:25:52.800Z,7.77
2022-11-10T05:27:54.635Z,7.87
2022-11-10T05:29:56.641Z,7.94
2022-11-10T05:31:58.304Z,8.03
2022-11-10T05:33:59.888Z,8.12
2022-11-10T05:36:01.991Z,8.16
2022-11-10T05:38:04.359Z,8.26
2022-11-10T05:40:06.568Z,8.33
2022-11-10T05:42:08.175Z,8.45
2022-11-10T05:44:09.865Z,8.49
2022-11-10T05:46:11.528Z,8.59
2022-11-10T05:48:13.196Z,8.67
2022-11-10T05:50:15.738Z,8.69
2022-11-10T05:52:17.359Z,8.67
2022-11-10T05:54:19.027Z,8.74
2022-11-10T05:56:20.922Z,8.80
2022-11-10T05:58:22.545Z,8.87
2022-11-10T06:00:30.110Z,8.96
2022-11-10T06:02:31.794Z,9.00
2022-11-10T06:04:33.356Z,9.04
2022-11-10T06:06:34.992Z,9.10
2022-11-10T06:08:36.734Z,9.15
2022-11-10T06:10:38.816Z,9.18
2022-11-10T06:12:40.480Z,9.24
2022-11-10T06:14:42.205Z,9.29
2022-11-10T06:16:43.811Z,9.33
2022-11-10T06:18:45.433Z,9.38
2022-11-10T06:20:47.713Z,9.45
2022-11-10T06:23:06.911Z,9.59
2022-11-10T06:25:09.372Z,9.62
2022-11-10T06:27:11.125Z,9.72
2022-11-10T06:29:12.730Z,9.69
2022-11-10T06:31:14.403Z,9.76
2022-11-10T06:33:16.080Z,9.74
2022-11-10T06:35:18.144Z,9.74
2022-11-10T06:37:19.893Z,9.76
2022-11-10T06:39:21.472Z,9.83
2022-11-10T06:41:25.448Z,9.95
2022-11-10T06:43:27.254Z,10.02
2022-11-10T06:45:29.138Z,10.10
2022-11-10T06:47:32.119Z,10.16
2022-11-10T06:49:34.438Z,10.27
2022-11-10T06:51:36.066Z,10.35
2022-11-10T06:53:37.634Z,10.40
2022-11-10T06:55:39.579Z,10.46
2022-11-10T06:57:41.201Z,10.49
2022-11-10T06:59:43.039Z,10.55
2022-11-10T07:01:44.772Z,10.52
2022-11-10T07:04:13.212Z,10.45
2022-11-10T07:06:08.389Z,10.37
2022-11-10T07:08:16.425Z,10.44
2022-11-10T07:10:18.249Z,10.47
2022-11-10T07:12:19.971Z,10.57
2022-11-10T07:14:21.653Z,10.65
2022-11-10T07:16:24.565Z,10.70
2022-11-10T07:18:26.409Z,10.69
2022-11-10T07:20:28.575Z,10.64
2022-11-10T07:22:30.567Z,10.46
2022-11-10T07:24:32.788Z,10.20
2022-11-10T07:26:34.885Z,9.92
2022-11-10T07:28:36.844Z,9.98
2022-11-10T07:30:41.350Z,10.16
2022-11-10T07:32:43.108Z,10.33
2022-11-10T07:34:44.817Z,10.59
2022-11-10T07:36:46.501Z,10.71
2022-11-10T07:38:48.133Z,10.73
2022-11-10T07:40:53.888Z,10.72
2022-11-10T07:42:55.525Z,10.64
2022-11-10T07:44:57.192Z,10.37
2022-11-10T07:46:58.938Z,10.47
2022-11-10T07:49:00.554Z,10.66
2022-11-10T07:51:02.183Z,10.87
2022-11-10T07:53:08.712Z,11.09
2022-11-10T07:55:10.431Z,11.10
2022-11-10T07:57:12.081Z,11.10
2022-11-10T07:59:13.694Z,10.92
2022-11-10T08:01:15.312Z,10.86
2022-11-10T08:03:19.391Z,10.65
2022-11-10T08:05:21.266Z,10.73
2022-11-10T08:07:22.986Z,10.32
2022-11-10T08:09:24.641Z,10.15
2022-11-10T08:11:26.287Z,10.49
2022-11-10T08:13:27.919Z,10.81
2022-11-10T08:15:30.493Z,11.09
2022-11-10T08:17:32.141Z,11.30
2022-11-10T08:19:33.755Z,11.53
2022-11-10T08:21:35.368Z,11.74
2022-11-10T08:23:37.053Z,11.91
2022-11-10T08:25:39.122Z,12.02
2022-11-10T08:27:40.813Z,11.92
2022-11-10T08:29:42.665Z,11.66
2022-11-10T08:31:44.259Z,11.41
2022-11-10T08:33:45.978Z,11.61
2022-11-10T08:35:50.169Z,11.77
2022-11-10T08:37:51.957Z,11.92
2022-11-10T08:39:53.686Z,11.82
2022-11-10T08:41:55.297Z,11.78
2022-11-10T08:43:57.267Z,11.84
2022-11-10T08:45:58.971Z,11.98
2022-11-10T08:48:11.194Z,12.09
2022-11-10T08:50:12.849Z,11.96
2022-11-10T08:52:14.498Z,11.45
2022-11-10T08:54:16.178Z,11.35
2022-11-10T08:56:18.065Z,11.57
2022-11-10T08:58:21.809Z,11.51
2022-11-10T09:00:23.497Z,11.34
2022-11-10T09:02:25.321Z,11.40
2022-11-10T09:04:26.980Z,11.12
2022-11-10T09:06:28.625Z,11.13
2022-11-10T09:08:33.923Z,11.35
2022-11-10T09:10:38.340Z,11.30
2022-11-10T09:12:41.322Z,11.36
2022-11-10T09:14:43.490Z,11.62
2022-11-10T09:16:45.133Z,11.83
2022-11-10T09:18:46.706Z,11.90
2022-11-10T09:20:48.628Z,12.04
2022-11-10T09:22:50.294Z,12.23
2022-11-10T09:24:51.924Z,12.46
2022-11-10T09:26:53.747Z,12.76
2022-11-10T09:28:55.320Z,12.54
2022-11-10T09:30:56.897Z,12.49
2022-11-10T09:32:59.894Z,12.72
2022-11-10T09:35:02.101Z,12.99
2022-11-10T09:37:04.116Z,13.06
2022-11-10T09:39:06.685Z,12.50
2022-11-10T09:41:11.518Z,12.74
2022-11-10T09:43:25.072Z,12.61
2022-11-10T09:45:39.187Z,12.33
2022-11-10T09:47:58.650Z,12.22
2022-11-10T09:50:01.628Z,12.13
2022-11-10T09:52:04.347Z,12.22
2022-11-10T09:54:06.468Z,12.35
2022-11-10T09:56:14.469Z,12.61
2022-11-10T09:58:16.317Z,12.95
2022-11-10T10:00:18.529Z,13.05
2022-11-10T10:02:28.516Z,13.03
2022-11-10T10:05:06.642Z,12.91
2022-11-10T10:07:12.226Z,13.29
2022-11-10T10:09:22.978Z,13.65
2022-11-10T10:11:33.756Z,13.70
2022-11-10T10:13:57.362Z,13.70
2022-11-10T10:16:12.452Z,13.15
2022-11-10T10:18:36.407Z,12.75
2022-11-10T10:20:47.051Z,12.56
2022-11-10T10:23:06.216Z,12.84
2022-11-10T10:25:14.298Z,12.98
2022-11-10T10:27:21.741Z,13.20
2022-11-10T10:29:25.873Z,13.11
2022-11-10T10:31:42.506Z,13.00
2022-11-10T10:33:45.006Z,13.08
2022-11-10T10:35:48.729Z,13.31
2022-11-10T10:37:56.097Z,13.43
2022-11-10T10:39:57.750Z,13.48
2022-11-10T10:41:59.521Z,13.10
2022-11-10T10:44:02.727Z,13.41
2022-11-10T10:46:15.236Z,13.80
2022-11-10T10:48:30.700Z,14.14
2022-11-10T10:50:37.718Z,14.39
2022-11-10T10:52:39.327Z,14.67
2022-11-10T10:54:41.232Z,14.36
2022-11-10T10:56:42.950Z,14.28
2022-11-10T10:58:52.447Z,14.34
2022-11-10T11:01:04.080Z,14.25
2022-11-10T11:03:13.302Z,14.10
2022-11-10T11:05:17.950Z,14.05
2022-11-10T11:07:22.812Z,14.26
2022-11-10T11:09:26.848Z,14.25
2022-11-10T11:11:31.271Z,14.46
2022-11-10T11:13:33.135Z,14.75
2022-11-10T11:15:34.995Z,14.94
2022-11-10T11:17:36.698Z,15.05
2022-11-10T11:19:39.212Z,15.23
2022-11-10T11:22:04.739Z,15.15
2022-11-10T11:24:18.247Z,14.98
2022-11-10T11:26:42.922Z,15.19
2022-11-10T11:28:54.033Z,15.41
2022-11-10T11:31:14.306Z,15.39
2022-11-10T11:33:40.954Z,15.51
2022-11-10T11:36:03.679Z,15.66
2022-11-10T11:38:25.624Z,15.82
2022-11-10T11:40:33.455Z,15.89
2022-11-10T11:43:09.107Z,15.80
2022-11-10T11:45:19.220Z,15.60
2022-11-10T11:47:39.777Z,15.54
2022-11-10T11:50:13.044Z,15.56
2022-11-10T11:52:38.062Z,15.01
2022-11-10T11:54:48.697Z,14.57
2022-11-10T11:56:50.983Z,14.53
2022-11-10T11:58:59.720Z,14.55
2022-11-10T12:01:32.261Z,14.89
2022-11-10T12:03:55.980Z,15.18
2022-11-10T12:06:48.167Z,15.53
2022-11-10T12:09:17.380Z,15.77
2022-11-10T12:11:37.551Z,15.92
2022-11-10T12:14:17.128Z,16.06
2022-11-10T12:16:27.654Z,16.10
2022-11-10T12:18:32.391Z,16.14
2022-11-10T12:20:42.454Z,16.21
2022-11-10T12:22:44.072Z,15.94
2022-11-10T12:25:37.153Z,15.45
2022-11-10T12:27:42.937Z,15.21
2022-11-10T12:29:57.004Z,14.86
2022-11-10T12:32:18.782Z,15.00
2022-11-10T12:34:52.789Z,15.08
2022-11-10T12:36:54.403Z,15.25
2022-11-10T12:39:07.612Z,15.27
2022-11-10T12:41:12.591Z,14.94
2022-11-10T12:43:22.674Z,14.91
2022-11-10T12:45:28.194Z,14.92
2022-11-10T12:47:36.177Z,15.07
2022-11-10T12:49:39.683Z,15.18
2022-11-10T12:51:53.407Z,15.27
2022-11-10T12:53:55.191Z,15.31
2022-11-10T12:56:00.924Z,15.38
2022-11-10T12:58:04.679Z,15.42
2022-11-10T13:00:09.422Z,15.51
2022-11-10T13:02:16.193Z,15.56
2022-11-10T13:04:19.292Z,15.32
2022-11-10T13:06:36.763Z,15.17
2022-11-10T13:08:41.440Z,15.35
2022-11-10T13:11:05.244Z,15.55
2022-11-10T13:13:15.034Z,15.68
2022-11-10T13:15:35.352Z,15.76
2022-11-10T13:17:36.921Z,15.84
2022-11-10T13:19:39.164Z,15.88
2022-11-10T13:21:52.861Z,15.90
2022-11-10T13:23:56.159Z,15.92
2022-11-10T13:26:02.766Z,15.95
2022-11-10T13:28:05.139Z,15.96
2022-11-10T13:30:09.107Z,15.96
2022-11-10T13:32:14.065Z,15.96
2022-11-10T13:34:21.788Z,15.91
2022-11-10T13:36:46.765Z,15.93
2022-11-10T13:38:49.213Z,15.96
2022-11-10T13:40:50.874Z,15.97
2022-11-10T13:42:58.619Z,16.02
2022-11-10T13:45:33.267Z,16.04
2022-11-10T13:47:52.082Z,16.07
2022-11-10T13:50:24.231Z,16.04
2022-11-10T13:52:28.845Z,16.08
2022-11-10T13:54:55.574Z,16.09
2022-11-10T13:57:23.417Z,16.14
2022-11-10T13:59:27.547Z,16.14
2022-11-10T14:01:30.552Z,16.18
2022-11-10T14:03:54.152Z,16.23
2022-11-10T14:06:04.630Z,16.28
2022-11-10T14:08:10.760Z,16.29
2022-11-10T14:10:19.052Z,16.32
2022-11-10T14:12:21.188Z,16.33
2022-11-10T14:14:30.422Z,16.35
2022-11-10T14:16:33.171Z,16.35
2022-11-10T14:18:41.266Z,16.37
2022-11-10T14:20:44.645Z,16.36
2022-11-10T14:22:47.563Z,16.35
2022-11-10T14:24:54.041Z,16.34
2022-11-10T14:26:58.722Z,16.34
2022-11-10T14:29:19.622Z,16.34
2022-11-10T14:31:23.768Z,16.35
2022-11-10T14:33:26.617Z,16.34
2022-11-10T14:35:30.416Z,16.33
2022-11-10T14:37:31.938Z,16.31
2022-11-10T14:39:34.686Z,16.27
2022-11-10T14:41:36.342Z,16.21
2022-11-10T14:43:39.214Z,16.17
2022-11-10T14:45:50.834Z,16.07
2022-11-10T14:47:55.977Z,15.96
2022-11-10T14:50:04.916Z,15.86
2022-11-10T14:52:06.608Z,15.79
2022-11-10T14:54:11.922Z,15.69
2022-11-10T14:56:21.430Z,15.60
2022-11-10T14:58:35.084Z,15.50
2022-11-10T15:00:38.697Z,15.42
2022-11-10T15:02:40.479Z,15.35
2022-11-10T15:04:45.843Z,15.30
2022-11-10T15:06:48.613Z,15.21
2022-11-10T15:08:50.296Z,15.13
2022-11-10T15:10:56.537Z,15.04
2022-11-10T15:13:04.491Z,14.94
2022-11-10T15:15:20.374Z,14.87
2022-11-10T15:17:22.018Z,14.82
2022-11-10T15:19:31.623Z,14.72
2022-11-10T15:21:34.235Z,14.64
2022-11-10T15:23:40.906Z,14.57
2022-11-10T15:25:42.697Z,14.51
2022-11-10T15:28:05.317Z,14.45
2022-11-10T15:30:22.144Z,14.40
2022-11-10T15:32:31.632Z,14.36
2022-11-10T15:34:44.933Z,14.30
2022-11-10T15:36:46.894Z,14.28
2022-11-10T15:39:05.577Z,14.23
2022-11-10T15:41:26.791Z,14.16
2022-11-10T15:43:29.257Z,14.11
2022-11-10T15:45:30.826Z,14.07
2022-11-10T15:47:32.970Z,14.03
2022-11-10T15:49:38.475Z,14.00
2022-11-10T15:51:40.198Z,13.97
2022-11-10T15:53:44.233Z,13.92
2022-11-10T15:55:46.057Z,13.87
2022-11-10T15:57:47.712Z,13.84
2022-11-10T15:59:49.379Z,13.79
2022-11-10T16:01:51.275Z,13.77
2022-11-10T16:03:52.899Z,13.77
2022-11-10T16:05:54.532Z,13.75
2022-11-10T16:07:56.677Z,13.67
2022-11-10T16:09:58.415Z,13.64
2022-11-10T16:12:00.103Z,13.61
2022-11-10T16:14:02.760Z,13.53
2022-11-10T16:16:04.618Z,13.48
2022-11-10T16:18:14.648Z,13.42
2022-11-10T16:20:16.874Z,13.37
2022-11-10T16:22:18.735Z,13.36
2022-11-10T16:24:20.330Z,13.28
2022-11-10T16:26:24.139Z,13.27
2022-11-10T16:28:26.789Z,13.24
2022-11-10T16:30:28.717Z,13.23
2022-11-10T16:32:30.400Z,13.21
2022-11-10T16:34:32.089Z,13.21
2022-11-10T16:36:34.727Z,13.18
2022-11-10T16:38:36.345Z,13.18
2022-11-10T16:40:38.008Z,13.17
2022-11-10T16:42:39.937Z,13.17
2022-11-10T16:44:42.749Z,13.13
2022-11-10T16:46:45.996Z,13.08
2022-11-10T16:48:48.204Z,13.06
2022-11-10T16:50:52.323Z,13.02
2022-11-10T16:52:55.141Z,12.98
2022-11-10T16:54:56.791Z,12.95
2022-11-10T16:56:58.411Z,12.94
2022-11-10T16:59:00.137Z,12.91
2022-11-10T17:01:02.355Z,12.91
2022-11-10T17:03:09.908Z,12.90
2022-11-10T17:05:18.217Z,12.89
2022-11-10T17:07:23.673Z,12.88
2022-11-10T17:09:26.705Z,12.87
2022-11-10T17:11:28.332Z,12.87
2022-11-10T17:13:30.022Z,12.85
2022-11-10T17:15:32.401Z,12.82
2022-11-10T17:17:35.567Z,12.79
2022-11-10T17:19:37.204Z,12.77
2022-11-10T17:21:39.131Z,12.72
2022-11-10T17:23:40.772Z,12.70
2022-11-10T17:25:43.409Z,12.68
2022-11-10T17:27:45.013Z,12.67
2022-11-10T17:29:47.070Z,12.66
2022-11-10T17:31:50.456Z,12.65
2022-11-10T17:33:52.471Z,12.62
2022-11-10T17:35:54.444Z,12.60
2022-11-10T17:37:57.730Z,12.58
2022-11-10T17:40:00.379Z,12.60
2022-11-10T17:42:02.029Z,12.62
2022-11-10T17:44:03.831Z,12.59
2022-11-10T17:46:05.790Z,12.58
2022-11-10T17:48:07.827Z,12.59
2022-11-10T17:50:09.639Z,12.57
2022-11-10T17:52:17.235Z,12.58
2022-11-10T17:54:18.922Z,12.58
2022-11-10T17:56:20.734Z,12.55
2022-11-10T17:58:22.950Z,12.52
2022-11-10T18:00:25.250Z,12.49
2022-11-10T18:02:26.912Z,12.49
2022-11-10T18:04:28.582Z,12.45
2022-11-10T18:06:31.190Z,12.45
2022-11-10T18:08:32.879Z,12.45
2022-11-10T18:10:34.513Z,12.46
2022-11-10T18:12:36.162Z,12.47
2022-11-10T18:14:37.785Z,12.47
2022-11-10T18:16:39.503Z,12.45
2022-11-10T18:18:41.728Z,12.43
2022-11-10T18:20:44.080Z,12.42
2022-11-10T18:22:45.758Z,12.39
2022-11-10T18:24:47.989Z,12.40
2022-11-10T18:26:49.656Z,12.40
2022-11-10T18:28:51.505Z,12.42
2022-11-10T18:30:53.198Z,12.39
2022-11-10T18:32:54.816Z,12.36
2022-11-10T18:34:56.578Z,12.36
2022-11-10T18:36:58.281Z,12.31
2022-11-10T18:39:00.158Z,12.25
2022-11-10T18:41:26.031Z,12.24
2022-11-10T18:43:27.691Z,12.22
2022-11-10T18:45:29.358Z,12.24
2022-11-10T18:47:30.977Z,12.21
2022-11-10T18:49:33.771Z,12.18
2022-11-10T18:51:35.703Z,12.16
2022-11-10T18:53:38.715Z,12.14
2022-11-10T18:55:45.269Z,12.10
2022-11-10T18:57:47.205Z,12.09
2022-11-10T18:59:48.923Z,12.07
2022-11-10T19:01:51.060Z,12.03
2022-11-10T19:03:52.745Z,12.06
2022-11-10T19:05:58.730Z,12.09
2022-11-10T19:08:00.531Z,12.13
2022-11-10T19:10:02.204Z,12.13
2022-11-10T19:12:04.064Z,11.88
2022-11-10T19:14:05.992Z,11.72
2022-11-10T19:16:09.791Z,11.66
2022-11-10T19:18:11.266Z,11.65
2022-11-10T19:20:15.490Z,11.74
2022-11-10T19:22:17.201Z,11.80
2022-11-10T19:24:27.701Z,11.86
2022-11-10T19:26:29.919Z,11.94
2022-11-10T19:28:32.114Z,11.96
2022-11-10T19:30:33.841Z,11.90
2022-11-10T19:32:35.516Z,11.74
2022-11-10T19:34:37.239Z,11.58
2022-11-10T19:36:38.937Z,11.52
2022-11-10T19:38:41.478Z,11.55
2022-11-10T19:40:44.643Z,11.55
2022-11-10T19:42:46.293Z,11.53
2022-11-10T19:44:47.849Z,11.60
2022-11-10T19:46:49.662Z,11.64
2022-11-10T19:48:51.717Z,11.63
2022-11-10T19:50:56.450Z,11.67
2022-11-10T19:52:58.216Z,11.70
2022-11-10T19:54:59.812Z,11.67
2022-11-10T19:57:01.553Z,11.60
2022-11-10T19:59:03.276Z,11.62
2022-11-10T20:01:08.936Z,11.62
2022-11-10T20:03:11.680Z,11.63
2022-11-10T20:05:13.316Z,11.65
2022-11-10T20:07:35.195Z,11.68
2022-11-10T20:09:36.932Z,11.72
2022-11-10T20:11:38.665Z,11.71
2022-11-10T20:13:40.276Z,11.68
2022-11-10T20:15:43.258Z,11.71
2022-11-10T20:17:44.831Z,11.74
2022-11-10T20:19:46.435Z,11.73
2022-11-10T20:21:48.142Z,11.74
2022-11-10T20:23:56.875Z,11.69
2022-11-10T20:26:17.084Z,11.64
2022-11-10T20:28:18.760Z,11.60
2022-11-10T20:30:23.609Z,11.59
2022-11-10T20:32:26.509Z,11.57
2022-11-10T20:34:28.324Z,11.57
2022-11-10T20:36:31.578Z,11.57
2022-11-10T20:38:33.182Z,11.60
2022-11-10T20:40:50.183Z,11.58
2022-11-10T20:42:52.413Z,11.56
2022-11-10T20:44:53.981Z,11.47
2022-11-10T20:46:55.847Z,11.36
2022-11-10T20:48:57.537Z,11.09
2022-11-10T20:50:59.454Z,10.74
2022-11-10T20:53:01.212Z,10.40
2022-11-10T20:55:04.457Z,10.15
2022-11-10T20:57:06.134Z,10.23
2022-11-10T20:59:07.722Z,10.25
2022-11-10T21:01:12.238Z,10.19
2022-11-10T21:03:13.871Z,10.30
2022-11-10T21:05:15.494Z,10.31
2022-11-10T21:07:17.237Z,10.36
2022-11-10T21:09:19.968Z,10.49
2022-11-10T21:11:40.556Z,10.58
2022-11-10T21:13:42.176Z,10.71
2022-11-10T21:15:43.792Z,10.82
2022-11-10T21:17:45.476Z,10.92
2022-11-10T21:19:48.541Z,10.97
2022-11-10T21:21:51.102Z,11.01
2022-11-10T21:23:57.301Z,11.06
2022-11-10T21:26:00.883Z,11.09
2022-11-10T21:28:03.060Z,11.10
2022-11-10T21:30:06.808Z,11.15
2022-11-10T21:32:10.807Z,11.16
2022-11-10T21:34:12.713Z,11.21
2022-11-10T21:36:14.419Z,11.24
2022-11-10T21:38:16.302Z,11.25
2022-11-10T21:40:17.939Z,11.26
2022-11-10T21:42:21.732Z,11.28
2022-11-10T21:44:25.016Z,11.27
2022-11-10T21:46:26.677Z,11.27
2022-11-10T21:48:28.263Z,11.28
2022-11-10T21:50:29.938Z,11.24
2022-11-10T21:52:34.976Z,11.22
2022-11-10T21:54:36.627Z,11.17
2022-11-10T21:56:38.749Z,11.16
2022-11-10T21:58:40.437Z,11.17
2022-11-10T22:00:42.012Z,11.17
2022-11-10T22:02:43.684Z,11.18
2022-11-10T22:04:45.395Z,11.21
2022-11-10T22:07:05.795Z,11.18
2022-11-10T22:09:07.653Z,11.15
2022-11-10T22:11:32.880Z,11.16
2022-11-10T22:13:52.819Z,11.18
2022-11-10T22:16:12.809Z,11.11
2022-11-10T22:18:39.718Z,11.07
2022-11-10T22:20:41.310Z,11.07
2022-11-10T22:22:44.263Z,11.07
2022-11-10T22:24:45.879Z,11.05
2022-11-10T22:26:47.559Z,11.05
2022-11-10T22:28:49.525Z,11.00
2022-11-10T22:30:51.120Z,10.91
2022-11-10T22:32:53.564Z,10.82
2022-11-10T22:34:55.189Z,10.55
2022-11-10T22:36:57.172Z,10.36
2022-11-10T22:39:03.146Z,10.20
2022-11-10T22:41:24.520Z,9.94
2022-11-10T22:43:44.706Z,9.98
2022-11-10T22:45:46.299Z,10.10
2022-11-10T22:48:06.846Z,10.23
2022-11-10T22:50:08.526Z,10.41
2022-11-10T22:52:10.252Z,10.55
2022-11-10T22:54:17.147Z,10.69
2022-11-10T22:56:19.410Z,10.79
2022-11-10T22:58:21.008Z,10.92
2022-11-10T23:00:22.743Z,11.01
2022-11-10T23:02:24.311Z,11.08
2022-11-10T23:04:25.915Z,10.97
2022-11-10T23:06:28.639Z,10.90
2022-11-10T23:08:30.578Z,10.79
2022-11-10T23:10:32.373Z,10.66
2022-11-10T23:12:34.250Z,10.49
2022-11-10T23:14:35.807Z,10.40
2022-11-10T23:16:37.422Z,10.15
2022-11-10T23:18:40.469Z,10.23
2022-11-10T23:20:42.098Z,10.33
2022-11-10T23:22:43.664Z,10.41
2022-11-10T23:24:45.338Z,10.49
2022-11-10T23:26:46.906Z,10.59
2022-11-10T23:28:48.699Z,10.69
2022-11-10T23:30:50.439Z,10.73
2022-11-10T23:32:54.100Z,10.79
2022-11-10T23:34:55.694Z,10.80
2022-11-10T23:36:57.383Z,10.80
2022-11-10T23:38:59.168Z,10.89
2022-11-10T23:41:01.475Z,10.87
2022-11-10T23:43:03.066Z,10.92
2022-11-10T23:45:05.190Z,10.97
2022-11-10T23:47:06.798Z,11.00
2022-11-10T23:49:08.437Z,11.06
2022-11-10T23:51:12.577Z,11.09
2022-11-10T23:53:14.745Z,11.13
2022-11-10T23:55:17.267Z,11.16
2022-11-10T23:57:19.100Z,11.20
2022-11-10T23:59:20.709Z,11.25
